Time;durP1;ratioP1;P1;durP2;ratioP2;P2;SDS_P1;SDS_P2;PMS_P1;PMS_P2;Temp;Humidity;BMP_temperature;BMP_pressure;BME280_temperature;BME280_humidity;BME280_pressure;Samples;Min_cycle;Max_cycle;Signal;HPM_P1;HPM_P2
2023/12/12 00:00:06;;;;;;;0.80;0.80;;;5.20;99.90;;;;;;2027798;28;20296;-81
2023/12/12 00:01:07;;;;;;;6.43;1.40;;;5.30;99.90;;;;;;2031787;28;20283;-80
2023/12/12 00:02:08;;;;;;;2.20;1.00;;;5.20;99.90;;;;;;2031269;28;20197;-80
2023/12/12 00:03:08;;;;;;;3.13;1.37;;;5.30;99.90;;;;;;2027876;28;20248;-81
2023/12/12 00:04:09;;;;;;;1.00;0.80;;;5.30;99.90;;;;;;2019927;28;20262;-81
2023/12/12 00:05:10;;;;;;;2.77;1.00;;;5.20;99.90;;;;;;2030357;28;20561;-81
2023/12/12 00:06:10;;;;;;;2.60;1.10;;;5.20;99.90;;;;;;2038219;29;20187;-80
2023/12/12 00:07:11;;;;;;;0.87;0.77;;;5.20;99.90;;;;;;2040499;29;20315;-81
2023/12/12 00:08:12;;;;;;;2.50;0.70;;;5.10;99.90;;;;;;2022807;28;20182;-81
2023/12/12 00:09:12;;;;;;;1.00;0.90;;;5.00;99.90;;;;;;2023888;29;20565;-81
2023/12/12 00:10:13;;;;;;;5.67;1.20;;;5.10;99.90;;;;;;2031252;28;20678;-81
2023/12/12 00:11:14;;;;;;;1.48;0.80;;;5.10;99.90;;;;;;2031608;28;20270;-81
2023/12/12 00:12:15;;;;;;;3.40;1.00;;;5.10;99.90;;;;;;2039289;28;20185;-81
2023/12/12 00:13:15;;;;;;;2.27;0.93;;;5.10;99.90;;;;;;2041513;28;20251;-81
2023/12/12 00:14:16;;;;;;;1.37;1.10;;;5.10;99.90;;;;;;2061685;28;20186;-81
2023/12/12 00:15:17;;;;;;;5.87;1.30;;;5.00;99.90;;;;;;2031547;29;20199;-81
2023/12/12 00:16:17;;;;;;;4.17;1.30;;;4.90;99.90;;;;;;2031709;29;20197;-81
2023/12/12 00:17:18;;;;;;;2.57;0.90;;;4.90;99.90;;;;;;2031711;29;20197;-81
2023/12/12 00:18:19;;;;;;;2.50;0.83;;;4.90;99.90;;;;;;2032023;28;20923;-81
2023/12/12 00:19:20;;;;;;;1.47;1.10;;;4.80;99.90;;;;;;2031581;28;20262;-81
2023/12/12 00:20:20;;;;;;;2.70;0.90;;;4.70;99.90;;;;;;2034685;28;20229;-80
2023/12/12 00:21:21;;;;;;;1.23;0.77;;;4.60;99.90;;;;;;2071812;28;21338;-80
2023/12/12 00:22:22;;;;;;;3.30;1.03;;;4.60;99.90;;;;;;2037314;28;20264;-81
2023/12/12 00:23:22;;;;;;;2.50;1.07;;;4.50;99.90;;;;;;2031930;28;20780;-81
2023/12/12 00:24:23;;;;;;;1.83;1.10;;;4.50;99.90;;;;;;2031484;28;20229;-81
2023/12/12 00:25:24;;;;;;;2.20;1.10;;;4.50;99.90;;;;;;2024305;29;20234;-81
2023/12/12 00:26:25;;;;;;;7.77;2.13;;;4.40;99.90;;;;;;2024426;29;20233;-81
2023/12/12 00:27:25;;;;;;;2.07;0.90;;;4.30;99.90;;;;;;2031880;29;21006;-81
2023/12/12 00:28:26;;;;;;;2.70;1.63;;;4.20;99.90;;;;;;2032086;28;20315;-81
2023/12/12 00:29:27;;;;;;;3.93;0.90;;;4.10;99.90;;;;;;2028208;28;20235;-81
2023/12/12 00:30:27;;;;;;;3.87;1.10;;;4.10;99.90;;;;;;2039699;29;20228;-81
2023/12/12 00:31:28;;;;;;;3.17;1.10;;;4.30;99.90;;;;;;2058716;28;20682;-81
2023/12/12 00:32:29;;;;;;;1.70;0.83;;;4.20;99.90;;;;;;2057814;28;20236;-81
2023/12/12 00:33:29;;;;;;;3.27;1.20;;;4.10;99.90;;;;;;2039892;29;20236;-81
2023/12/12 00:34:30;;;;;;;1.40;1.00;;;4.00;99.90;;;;;;2031948;29;20232;-81
2023/12/12 00:35:31;;;;;;;1.60;0.97;;;4.00;99.90;;;;;;2039947;28;20225;-81
2023/12/12 00:36:31;;;;;;;3.30;1.17;;;3.90;99.90;;;;;;2032050;29;20614;-82
2023/12/12 00:37:32;;;;;;;2.13;1.03;;;3.90;99.90;;;;;;2031215;29;20243;-81
2023/12/12 00:38:33;;;;;;;3.27;1.00;;;3.80;99.90;;;;;;2024251;29;20233;-81
2023/12/12 00:39:38;;;;;;;1.90;1.00;;;3.80;99.90;;;;;;2023976;28;20234;-81
2023/12/12 00:40:38;;;;;;;2.33;0.95;;;3.90;99.90;;;;;;2039069;29;20717;-81
2023/12/12 00:41:39;;;;;;;3.07;1.20;;;3.90;99.90;;;;;;2032164;29;20248;-81
2023/12/12 00:42:40;;;;;;;2.83;1.30;;;3.80;99.90;;;;;;2024028;29;20229;-81
2023/12/12 00:43:41;;;;;;;1.67;0.93;;;3.90;99.90;;;;;;2032118;28;20248;-81
2023/12/12 00:44:42;;;;;;;1.42;1.00;;;3.80;99.90;;;;;;2022972;29;20772;-81
2023/12/12 00:45:42;;;;;;;2.87;0.80;;;3.80;99.90;;;;;;2023659;28;20217;-80
2023/12/12 00:46:43;;;;;;;4.20;1.10;;;3.70;99.90;;;;;;2027168;29;20257;-81
2023/12/12 00:47:44;;;;;;;1.53;0.80;;;3.70;99.90;;;;;;2023908;29;20702;-81
2023/12/12 00:48:45;;;;;;;1.77;0.90;;;3.80;99.90;;;;;;2040429;29;20220;-81
2023/12/12 00:49:45;;;;;;;2.63;0.90;;;3.80;99.90;;;;;;2040814;28;20227;-82
2023/12/12 00:50:47;;;;;;;2.43;0.90;;;3.80;99.90;;;;;;2034407;28;20217;-80
2023/12/12 00:51:48;;;;;;;1.63;1.08;;;3.80;99.90;;;;;;2026858;29;20222;-80
2023/12/12 00:52:49;;;;;;;4.20;1.00;;;3.80;99.90;;;;;;2028487;29;20233;-81
2023/12/12 00:53:50;;;;;;;1.27;0.83;;;3.80;99.90;;;;;;2030434;29;20293;-82
2023/12/12 00:54:50;;;;;;;1.77;0.70;;;3.80;99.90;;;;;;2019101;28;20313;-81
2023/12/12 00:55:51;;;;;;;0.90;0.70;;;3.80;99.90;;;;;;2024317;29;20280;-82
2023/12/12 00:56:52;;;;;;;1.20;0.80;;;3.90;99.90;;;;;;2032158;28;20225;-81
2023/12/12 00:57:52;;;;;;;1.47;0.77;;;3.90;99.90;;;;;;2032542;29;20228;-81
2023/12/12 00:58:53;;;;;;;1.57;0.90;;;3.80;99.90;;;;;;2031992;29;20221;-81
2023/12/12 00:59:54;;;;;;;1.37;0.80;;;3.90;99.90;;;;;;2028615;29;20229;-81
2023/12/12 01:00:55;;;;;;;1.65;0.70;;;3.80;99.90;;;;;;2046445;28;20248;-81
2023/12/12 01:01:55;;;;;;;2.17;1.07;;;3.80;99.90;;;;;;2040243;29;20224;-81
2023/12/12 01:02:56;;;;;;;0.90;0.80;;;3.80;99.90;;;;;;2031897;29;20741;-81
2023/12/12 01:03:57;;;;;;;2.87;1.10;;;3.80;99.90;;;;;;2031493;29;20232;-81
2023/12/12 01:04:57;;;;;;;2.13;1.07;;;3.80;99.90;;;;;;2031405;29;20221;-81
2023/12/12 01:05:58;;;;;;;1.23;0.73;;;3.90;99.90;;;;;;2028348;29;20222;-81
2023/12/12 01:06:59;;;;;;;1.73;1.10;;;3.80;99.90;;;;;;2020617;28;20622;-81
2023/12/12 01:07:59;;;;;;;1.20;0.90;;;3.80;99.90;;;;;;2024119;28;20225;-81
2023/12/12 01:09:00;;;;;;;2.33;1.00;;;3.80;99.90;;;;;;2023914;28;20224;-81
2023/12/12 01:10:01;;;;;;;2.87;1.00;;;3.80;99.90;;;;;;2023825;28;20721;-80
2023/12/12 01:11:02;;;;;;;3.30;1.15;;;3.90;99.90;;;;;;2032288;28;20189;-81
2023/12/12 01:12:04;;;;;;;0.70;0.70;;;3.90;99.90;;;;;;2032211;28;20185;-81
2023/12/12 01:13:04;;;;;;;2.25;0.80;;;3.80;99.90;;;;;;2036482;29;20196;-81
2023/12/12 01:14:05;;;;;;;1.40;0.80;;;3.80;99.90;;;;;;2026938;28;20185;-81
2023/12/12 01:15:07;;;;;;;1.47;0.87;;;3.80;99.90;;;;;;2030090;29;20240;-81
2023/12/12 01:16:08;;;;;;;2.30;0.73;;;3.70;99.90;;;;;;2064469;28;20193;-81
2023/12/12 01:17:09;;;;;;;1.27;0.80;;;3.70;99.90;;;;;;2064789;28;20671;-81
2023/12/12 01:18:09;;;;;;;2.30;0.90;;;3.80;99.90;;;;;;2072651;28;20268;-80
2023/12/12 01:19:10;;;;;;;2.50;1.23;;;3.70;99.90;;;;;;2030043;29;20220;-81
2023/12/12 01:20:11;;;;;;;4.10;0.87;;;3.80;99.90;;;;;;2031586;29;20205;-82
2023/12/12 01:21:11;;;;;;;3.40;1.00;;;3.80;99.90;;;;;;2029972;29;20752;-81
2023/12/12 01:22:12;;;;;;;1.33;0.83;;;3.60;99.90;;;;;;2022385;28;20193;-80
2023/12/12 01:23:13;;;;;;;10.43;1.40;;;3.70;99.90;;;;;;2024164;28;20178;-81
2023/12/12 01:24:14;;;;;;;1.50;1.10;;;3.70;99.90;;;;;;2023910;28;20225;-81
2023/12/12 01:25:15;;;;;;;2.22;0.90;;;3.70;99.90;;;;;;2030282;28;20197;-81
2023/12/12 01:26:16;;;;;;;2.53;0.90;;;3.70;99.90;;;;;;2031472;29;20189;-81
2023/12/12 01:27:16;;;;;;;2.67;0.93;;;3.70;99.90;;;;;;2024767;29;20194;-81
2023/12/12 01:28:17;;;;;;;1.73;1.13;;;3.70;99.90;;;;;;2024329;29;20194;-81
2023/12/12 01:29:18;;;;;;;1.10;0.90;;;3.70;99.90;;;;;;2024448;29;20200;-82
2023/12/12 01:30:18;;;;;;;2.93;0.83;;;3.70;99.90;;;;;;2023916;29;20863;-82
2023/12/12 01:31:19;;;;;;;0.87;0.80;;;3.80;99.90;;;;;;2035480;29;20217;-80
2023/12/12 01:32:20;;;;;;;1.23;0.93;;;3.80;99.90;;;;;;2037019;29;20259;-81
2023/12/12 01:33:21;;;;;;;1.30;1.10;;;3.80;99.90;;;;;;2037521;29;20313;-80
2023/12/12 01:34:22;;;;;;;1.10;0.82;;;3.80;99.90;;;;;;2037045;29;20236;-81
2023/12/12 01:35:23;;;;;;;1.27;0.90;;;3.80;99.90;;;;;;2029449;29;20230;-81
2023/12/12 01:36:23;;;;;;;2.00;0.90;;;3.80;99.90;;;;;;2024125;28;20237;-81
2023/12/12 01:37:24;;;;;;;2.60;0.80;;;3.70;99.90;;;;;;2031699;29;20275;-81
2023/12/12 01:38:25;;;;;;;3.60;0.87;;;3.80;99.90;;;;;;2031541;29;20240;-81
2023/12/12 01:39:26;;;;;;;1.63;0.80;;;3.70;99.90;;;;;;2031105;28;20225;-81
2023/12/12 01:40:27;;;;;;;1.37;1.00;;;3.80;99.90;;;;;;2031741;29;20311;-81
2023/12/12 01:41:27;;;;;;;2.60;1.00;;;3.70;99.90;;;;;;2020738;29;20284;-81
2023/12/12 01:42:28;;;;;;;1.53;0.80;;;3.70;99.90;;;;;;2024032;29;20250;-81
2023/12/12 01:43:30;;;;;;;0.90;0.83;;;3.70;99.90;;;;;;2031871;29;20280;-81
2023/12/12 01:44:31;;;;;;;1.38;1.10;;;3.70;99.90;;;;;;2023302;28;20241;-81
2023/12/12 01:45:31;;;;;;;3.97;1.20;;;3.70;99.90;;;;;;2024235;29;20287;-81
2023/12/12 01:46:35;;;;;;;4.00;1.13;;;3.60;99.90;;;;;;2028559;29;20308;-82
2023/12/12 01:47:36;;;;;;;0.88;0.88;;;3.60;99.90;;;;;;2039088;29;20232;-81
2023/12/12 01:48:36;;;;;;;3.77;1.03;;;3.60;99.90;;;;;;2031114;29;20323;-81
2023/12/12 01:49:38;;;;;;;3.37;2.13;;;3.50;99.90;;;;;;2031431;29;20254;-81
2023/12/12 01:50:38;;;;;;;2.45;1.30;;;3.50;99.90;;;;;;2039417;29;20235;-81
2023/12/12 01:51:39;;;;;;;3.33;1.80;;;3.70;99.90;;;;;;2031077;29;20577;-81
2023/12/12 01:52:40;;;;;;;4.10;1.40;;;3.70;99.90;;;;;;2023533;29;20604;-80
2023/12/12 01:53:46;;;;;;;4.17;1.30;;;3.60;99.90;;;;;;2023499;29;20225;-81
2023/12/12 01:54:49;;;;;;;1.98;1.00;;;3.60;99.90;;;;;;2023167;29;20267;-81
2023/12/12 01:55:51;;;;;;;2.88;1.38;;;3.60;99.90;;;;;;2026843;29;20225;-79
2023/12/12 01:56:53;;;;;;;3.88;1.20;;;3.60;99.90;;;;;;2038753;29;20258;-80
2023/12/12 01:57:54;;;;;;;2.28;1.55;;;3.60;99.90;;;;;;2030863;29;20225;-81
2023/12/12 01:58:57;;;;;;;1.70;1.03;;;3.60;99.90;;;;;;2030571;29;20229;-80
2023/12/12 01:59:59;;;;;;;1.95;1.10;;;3.60;99.90;;;;;;2027661;28;20242;-81
2023/12/12 02:01:00;;;;;;;1.88;1.35;;;3.60;99.90;;;;;;2031512;28;20260;-81
2023/12/12 02:02:00;;;;;;;1.47;1.30;;;3.60;99.90;;;;;;2028974;29;20705;-81
2023/12/12 02:03:01;;;;;;;1.50;1.07;;;3.60;99.90;;;;;;2037497;29;20270;-81
2023/12/12 02:04:03;;;;;;;2.80;1.33;;;3.60;99.90;;;;;;2035819;29;20204;-81
2023/12/12 02:05:04;;;;;;;1.80;1.20;;;3.50;99.90;;;;;;2026312;28;20190;-82
2023/12/12 02:06:06;;;;;;;2.15;1.30;;;3.50;99.90;;;;;;2036547;28;20201;-82
2023/12/12 02:07:07;;;;;;;1.73;1.20;;;3.50;99.90;;;;;;2041472;29;20188;-81
2023/12/12 02:08:08;;;;;;;2.70;1.70;;;3.50;99.90;;;;;;2033837;28;20215;-80
2023/12/12 02:09:09;;;;;;;1.80;1.10;;;3.60;99.90;;;;;;2035461;29;20242;-81
2023/12/12 02:10:10;;;;;;;1.23;0.98;;;3.60;99.90;;;;;;2035702;29;20185;-81
2023/12/12 02:11:11;;;;;;;1.80;0.83;;;3.60;99.90;;;;;;2028165;28;20218;-81
2023/12/12 02:12:12;;;;;;;2.22;1.38;;;3.60;99.90;;;;;;2042362;28;20182;-81
2023/12/12 02:13:13;;;;;;;1.97;1.10;;;3.50;99.90;;;;;;2035587;28;20710;-81
2023/12/12 02:14:13;;;;;;;3.30;1.60;;;3.50;99.90;;;;;;2042004;28;20204;-82
2023/12/12 02:15:17;;;;;;;1.20;0.93;;;3.60;99.90;;;;;;2026581;28;20208;-81
2023/12/12 02:16:18;;;;;;;1.42;1.20;;;3.60;99.90;;;;;;2018091;29;20289;-81
2023/12/12 02:17:19;;;;;;;2.37;1.00;;;3.50;99.90;;;;;;2016855;28;20599;-81
2023/12/12 02:18:19;;;;;;;5.13;1.37;;;3.40;99.90;;;;;;2024385;28;20545;-81
2023/12/12 02:19:20;;;;;;;1.47;1.10;;;3.40;99.90;;;;;;2040473;28;20193;-81
2023/12/12 02:20:21;;;;;;;4.33;1.30;;;3.50;99.90;;;;;;2041939;28;20400;-81
2023/12/12 02:21:21;;;;;;;1.60;0.80;;;3.50;99.90;;;;;;2041379;28;20225;-80
2023/12/12 02:22:22;;;;;;;0.70;0.70;;;3.60;99.90;;;;;;2027886;29;20253;-81
2023/12/12 02:23:23;;;;;;;4.97;1.33;;;3.70;99.90;;;;;;2024597;29;20321;-82
2023/12/12 02:24:23;;;;;;;1.30;0.80;;;3.80;99.90;;;;;;2032531;29;20299;-80
2023/12/12 02:25:24;;;;;;;0.93;0.90;;;3.80;99.90;;;;;;2032785;29;20241;-81
2023/12/12 02:26:25;;;;;;;1.35;0.93;;;3.80;99.90;;;;;;2031467;29;20241;-80
2023/12/12 02:27:26;;;;;;;0.80;0.80;;;3.90;99.90;;;;;;2022918;29;20619;-81
2023/12/12 02:28:26;;;;;;;2.07;1.20;;;3.90;99.90;;;;;;2022180;28;20639;-80
2023/12/12 02:29:27;;;;;;;1.93;1.30;;;3.90;99.90;;;;;;2021951;28;20625;-80
2023/12/12 02:30:29;;;;;;;1.80;1.30;;;3.90;99.90;;;;;;2023094;28;20233;-81
2023/12/12 02:31:30;;;;;;;2.00;1.20;;;3.80;99.90;;;;;;2017910;29;20233;-81
2023/12/12 02:32:31;;;;;;;1.30;0.97;;;3.70;99.90;;;;;;2023546;28;20722;-81
2023/12/12 02:33:31;;;;;;;1.13;1.00;;;3.70;99.90;;;;;;2063147;28;20297;-81
2023/12/12 02:34:32;;;;;;;2.67;1.37;;;3.60;99.90;;;;;;2022151;29;20288;-80
2023/12/12 02:35:33;;;;;;;1.43;1.00;;;3.60;99.90;;;;;;2024667;29;20310;-81
2023/12/12 02:36:33;;;;;;;1.37;1.00;;;3.60;99.90;;;;;;2032203;29;20319;-81
2023/12/12 02:37:34;;;;;;;2.87;1.13;;;3.60;99.90;;;;;;2030948;29;20288;-81
2023/12/12 02:38:35;;;;;;;1.87;0.80;;;3.60;99.90;;;;;;2023261;28;20260;-81
2023/12/12 02:39:36;;;;;;;4.00;1.00;;;3.60;99.90;;;;;;2023649;28;20272;-81
2023/12/12 02:40:36;;;;;;;3.20;1.20;;;3.70;99.90;;;;;;2029895;28;20238;-81
2023/12/12 02:41:37;;;;;;;2.00;1.20;;;3.70;99.90;;;;;;2030837;29;20242;-81
2023/12/12 02:42:44;;;;;;;2.50;1.10;;;3.80;99.90;;;;;;2031889;29;20910;-81
2023/12/12 02:43:45;;;;;;;1.92;1.17;;;3.90;99.90;;;;;;2037469;29;20626;-81
2023/12/12 02:44:45;;;;;;;1.60;1.03;;;3.80;99.90;;;;;;2039593;29;20228;-82
2023/12/12 02:45:46;;;;;;;3.40;1.37;;;3.90;99.90;;;;;;2030817;28;20221;-81
2023/12/12 02:46:47;;;;;;;1.43;0.70;;;3.90;99.90;;;;;;2032416;28;20228;-81
2023/12/12 02:47:47;;;;;;;1.00;0.90;;;4.00;99.90;;;;;;2058197;28;20320;-80
2023/12/12 02:48:48;;;;;;;1.50;1.00;;;4.00;99.90;;;;;;2032181;29;20214;-81
2023/12/12 02:49:49;;;;;;;1.30;1.17;;;4.00;99.90;;;;;;2034079;28;20259;-81
2023/12/12 02:50:50;;;;;;;2.25;1.00;;;4.00;99.90;;;;;;2033593;29;20233;-80
2023/12/12 02:51:51;;;;;;;3.60;1.40;;;3.90;99.90;;;;;;2018763;28;20245;-81
2023/12/12 02:52:52;;;;;;;3.60;1.17;;;3.90;99.90;;;;;;2024909;29;20229;-81
2023/12/12 02:53:52;;;;;;;1.50;1.20;;;4.00;99.90;;;;;;2033314;28;20225;-81
2023/12/12 02:54:53;;;;;;;4.97;1.10;;;4.00;99.90;;;;;;2024964;28;20241;-81
2023/12/12 02:55:54;;;;;;;2.40;1.50;;;4.00;99.90;;;;;;2022625;28;20341;-81
2023/12/12 02:56:54;;;;;;;2.60;1.17;;;4.00;99.90;;;;;;2024904;28;20312;-81
2023/12/12 02:57:55;;;;;;;4.43;1.10;;;4.00;99.90;;;;;;2031275;29;20236;-81
2023/12/12 02:58:56;;;;;;;3.90;0.93;;;4.10;99.90;;;;;;2028094;29;20367;-81
2023/12/12 02:59:56;;;;;;;2.40;1.37;;;4.10;99.90;;;;;;2020448;28;20665;-81
2023/12/12 03:00:57;;;;;;;1.33;1.10;;;4.10;99.90;;;;;;2024702;28;20264;-81
2023/12/12 03:01:58;;;;;;;1.87;1.10;;;4.10;99.90;;;;;;2027972;29;20226;-81
2023/12/12 03:02:58;;;;;;;3.03;1.67;;;4.10;99.90;;;;;;2024088;29;20244;-81
2023/12/12 03:03:59;;;;;;;1.80;1.00;;;4.20;99.90;;;;;;2029232;28;20239;-81
2023/12/12 03:05:00;;;;;;;2.47;1.17;;;4.20;99.90;;;;;;2031549;28;20308;-81
2023/12/12 03:06:01;;;;;;;1.10;1.00;;;4.20;99.90;;;;;;2028664;28;20225;-80
2023/12/12 03:07:01;;;;;;;1.90;1.20;;;4.20;99.90;;;;;;2024813;29;20273;-81
2023/12/12 03:08:02;;;;;;;3.00;1.20;;;4.10;99.90;;;;;;2030851;29;20197;-81
2023/12/12 03:09:03;;;;;;;1.43;1.17;;;4.10;99.90;;;;;;2025070;28;20328;-81
2023/12/12 03:10:04;;;;;;;1.00;0.90;;;4.00;99.90;;;;;;2039786;29;20243;-81
2023/12/12 03:11:05;;;;;;;1.27;0.77;;;4.00;99.90;;;;;;2023453;29;20656;-81
2023/12/12 03:12:06;;;;;;;3.00;1.07;;;4.10;99.90;;;;;;2019831;28;20210;-81
2023/12/12 03:13:07;;;;;;;2.00;0.90;;;4.10;99.90;;;;;;2027362;28;20274;-81
2023/12/12 03:14:08;;;;;;;1.07;0.80;;;4.10;99.90;;;;;;2031483;29;20267;-81
2023/12/12 03:15:11;;;;;;;1.48;0.93;;;4.10;99.90;;;;;;2032044;28;20296;-81
2023/12/12 03:16:11;;;;;;;4.13;1.17;;;4.10;99.90;;;;;;2023453;28;20281;-81
2023/12/12 03:17:12;;;;;;;1.20;1.00;;;4.20;99.90;;;;;;2024022;28;20202;-82
2023/12/12 03:18:13;;;;;;;2.37;0.87;;;4.20;99.90;;;;;;2023345;28;20186;-81
2023/12/12 03:19:14;;;;;;;2.27;1.20;;;4.30;99.90;;;;;;2025299;29;20269;-82
2023/12/12 03:20:14;;;;;;;2.00;1.20;;;4.30;99.90;;;;;;2027275;28;20248;-81
2023/12/12 03:21:15;;;;;;;2.70;1.50;;;4.30;99.90;;;;;;2021893;28;20200;-81
2023/12/12 03:22:16;;;;;;;1.60;0.97;;;4.20;99.90;;;;;;2025523;29;20229;-81
2023/12/12 03:23:17;;;;;;;2.57;0.90;;;4.30;99.90;;;;;;2024147;29;20284;-81
2023/12/12 03:24:18;;;;;;;1.97;1.00;;;4.30;99.90;;;;;;2024796;28;20758;-82
2023/12/12 03:25:18;;;;;;;1.17;0.87;;;4.30;99.90;;;;;;2032206;28;20189;-81
2023/12/12 03:26:19;;;;;;;1.27;0.70;;;4.30;99.90;;;;;;2031685;28;20638;-81
2023/12/12 03:27:19;;;;;;;1.43;0.80;;;4.40;99.90;;;;;;2031800;28;20189;-81
2023/12/12 03:28:20;;;;;;;1.90;1.00;;;4.40;99.90;;;;;;2031511;29;20237;-81
2023/12/12 03:29:21;;;;;;;1.83;1.00;;;4.40;99.90;;;;;;2021096;28;20337;-80
2023/12/12 03:30:22;;;;;;;2.60;0.90;;;4.40;99.90;;;;;;2024841;28;20445;-81
2023/12/12 03:31:22;;;;;;;2.33;1.17;;;4.40;99.90;;;;;;2039168;28;20282;-80
2023/12/12 03:32:23;;;;;;;2.17;1.23;;;4.40;99.90;;;;;;2047314;28;20235;-81
2023/12/12 03:33:25;;;;;;;2.70;1.30;;;4.40;99.90;;;;;;2047828;28;20238;-81
2023/12/12 03:34:25;;;;;;;4.03;1.38;;;4.30;99.90;;;;;;2043264;28;20295;-81
2023/12/12 03:35:26;;;;;;;3.27;1.70;;;4.20;99.90;;;;;;2042722;28;20672;-82
2023/12/12 03:36:27;;;;;;;4.00;2.07;;;4.20;99.90;;;;;;2034262;28;20243;-81
2023/12/12 03:37:27;;;;;;;2.93;1.80;;;4.20;99.90;;;;;;2031380;28;20255;-81
2023/12/12 03:38:28;;;;;;;5.17;2.30;;;4.20;99.90;;;;;;2031560;29;20243;-81
2023/12/12 03:39:28;;;;;;;3.07;1.93;;;4.20;99.90;;;;;;2040262;29;20398;-81
2023/12/12 03:40:29;;;;;;;3.20;1.87;;;4.30;99.90;;;;;;2040457;29;20228;-81
2023/12/12 03:41:30;;;;;;;3.37;1.83;;;4.30;99.90;;;;;;2026402;28;20300;-80
2023/12/12 03:42:30;;;;;;;2.70;1.60;;;4.30;99.90;;;;;;2033136;29;20824;-81
2023/12/12 03:43:31;;;;;;;2.33;1.60;;;4.30;99.90;;;;;;2025773;29;20588;-82
2023/12/12 03:44:32;;;;;;;3.37;1.80;;;4.30;99.90;;;;;;2031755;29;20247;-81
2023/12/12 03:45:33;;;;;;;5.03;1.67;;;4.30;99.90;;;;;;2030955;29;20278;-81
2023/12/12 03:46:33;;;;;;;1.73;1.40;;;4.30;99.90;;;;;;2039707;29;20224;-81
2023/12/12 03:47:34;;;;;;;3.00;1.43;;;4.40;99.90;;;;;;2023783;29;20229;-81
2023/12/12 03:48:35;;;;;;;2.93;1.67;;;4.50;99.90;;;;;;2022675;29;20243;-81
2023/12/12 03:49:35;;;;;;;2.80;1.90;;;4.50;99.90;;;;;;2038718;29;20609;-81
2023/12/12 03:50:36;;;;;;;2.93;1.93;;;4.60;99.90;;;;;;2047383;28;20223;-81
2023/12/12 03:51:37;;;;;;;6.37;2.00;;;4.50;99.90;;;;;;2042862;28;20920;-82
2023/12/12 03:52:38;;;;;;;2.00;1.30;;;4.50;99.90;;;;;;2028005;29;20308;-81
2023/12/12 03:53:39;;;;;;;3.53;2.10;;;4.40;99.90;;;;;;2023667;28;20237;-81
2023/12/12 03:54:40;;;;;;;2.47;1.50;;;4.50;99.90;;;;;;2015459;28;20352;-81
2023/12/12 03:55:41;;;;;;;1.87;1.13;;;4.50;99.90;;;;;;2014038;28;20480;-81
2023/12/12 03:56:42;;;;;;;3.87;1.60;;;4.40;99.90;;;;;;2029217;28;20535;-81
2023/12/12 03:57:42;;;;;;;1.63;1.33;;;4.40;99.90;;;;;;2040078;28;20412;-81
2023/12/12 03:58:43;;;;;;;2.77;1.20;;;4.40;99.90;;;;;;2031395;28;20233;-81
2023/12/12 03:59:44;;;;;;;4.40;2.10;;;4.50;99.90;;;;;;2027339;29;20235;-81
2023/12/12 04:00:45;;;;;;;3.73;1.37;;;4.40;99.90;;;;;;2024057;28;20222;-81
2023/12/12 04:01:48;;;;;;;2.43;1.50;;;4.40;99.90;;;;;;2032626;29;20467;-80
2023/12/12 04:02:50;;;;;;;2.10;1.40;;;4.40;99.90;;;;;;2024922;28;20239;-81
2023/12/12 04:03:51;;;;;;;2.97;1.50;;;4.40;99.90;;;;;;2032919;28;20232;-80
2023/12/12 04:04:51;;;;;;;4.73;1.40;;;4.30;99.90;;;;;;2038302;29;20311;-81
2023/12/12 04:05:52;;;;;;;4.13;1.40;;;4.30;99.90;;;;;;2034811;29;20220;-81
2023/12/12 04:06:53;;;;;;;2.50;1.37;;;4.30;99.90;;;;;;2031594;29;20228;-80
2023/12/12 04:07:54;;;;;;;1.75;1.50;;;4.30;99.90;;;;;;2031992;28;20331;-81
2023/12/12 04:08:54;;;;;;;2.07;1.70;;;4.40;99.90;;;;;;2030195;29;20233;-81
2023/12/12 04:09:55;;;;;;;3.23;1.40;;;4.40;99.90;;;;;;2031747;28;20236;-81
2023/12/12 04:10:56;;;;;;;1.40;1.30;;;4.50;99.90;;;;;;2032053;28;20763;-80
2023/12/12 04:11:56;;;;;;;1.20;1.00;;;4.40;99.90;;;;;;2034129;29;20239;-81
2023/12/12 04:12:57;;;;;;;1.20;0.93;;;4.40;99.90;;;;;;2035475;29;20225;-81
2023/12/12 04:13:58;;;;;;;3.87;1.70;;;4.50;99.90;;;;;;2035118;29;20715;-81
2023/12/12 04:14:58;;;;;;;3.10;1.30;;;4.50;99.90;;;;;;2038101;29;20708;-81
2023/12/12 04:15:59;;;;;;;1.40;1.20;;;4.40;99.90;;;;;;2032117;28;20316;-81
2023/12/12 04:17:00;;;;;;;3.13;1.50;;;4.40;99.90;;;;;;2023106;28;20217;-81
2023/12/12 04:18:00;;;;;;;2.77;1.80;;;4.40;99.90;;;;;;2031414;29;20736;-81
2023/12/12 04:19:01;;;;;;;2.93;1.70;;;4.40;99.90;;;;;;2031356;28;20197;-81
2023/12/12 04:20:02;;;;;;;2.70;1.70;;;4.40;99.90;;;;;;2031148;28;20318;-81
2023/12/12 04:21:05;;;;;;;2.22;1.80;;;4.30;99.90;;;;;;2023567;29;20244;-81
2023/12/12 04:22:05;;;;;;;1.95;1.40;;;4.40;99.90;;;;;;2013576;29;20195;-81
2023/12/12 04:23:06;;;;;;;2.60;1.60;;;4.40;99.90;;;;;;2026107;28;20186;-80
2023/12/12 04:24:07;;;;;;;4.00;1.87;;;4.40;99.90;;;;;;2027403;28;20252;-81
2023/12/12 04:25:08;;;;;;;1.30;1.20;;;4.40;99.90;;;;;;2023583;28;20191;-82
2023/12/12 04:26:09;;;;;;;1.57;1.17;;;4.40;99.90;;;;;;2031931;29;20188;-82
2023/12/12 04:27:10;;;;;;;3.63;1.50;;;4.40;99.90;;;;;;2032156;29;20185;-82
2023/12/12 04:28:10;;;;;;;2.47;1.50;;;4.50;99.90;;;;;;2030428;29;20185;-81
2023/12/12 04:29:11;;;;;;;1.83;1.37;;;4.40;99.90;;;;;;2031613;28;20252;-81
2023/12/12 04:30:12;;;;;;;3.57;2.03;;;4.50;99.90;;;;;;2035536;29;20294;-82
2023/12/12 04:31:16;;;;;;;3.58;2.83;;;4.40;99.90;;;;;;2039042;29;20286;-81
2023/12/12 04:32:17;;;;;;;2.53;2.10;;;4.40;99.90;;;;;;2032427;28;20185;-81
2023/12/12 04:33:18;;;;;;;3.13;1.93;;;4.40;99.90;;;;;;2032228;29;20211;-81
2023/12/12 04:34:18;;;;;;;4.47;2.20;;;4.40;99.90;;;;;;2023404;28;20217;-82
2023/12/12 04:35:22;;;;;;;4.93;2.30;;;4.30;99.90;;;;;;2023544;28;20218;-81
2023/12/12 04:36:22;;;;;;;2.13;1.92;;;4.40;99.90;;;;;;2023778;28;20237;-81
2023/12/12 04:37:23;;;;;;;3.60;1.80;;;4.40;99.90;;;;;;2023598;28;20233;-80
2023/12/12 04:38:24;;;;;;;3.13;2.10;;;4.40;99.90;;;;;;2016534;29;20242;-80
2023/12/12 04:39:26;;;;;;;2.33;1.80;;;4.30;99.90;;;;;;2056852;28;20234;-81
2023/12/12 04:40:29;;;;;;;3.67;1.92;;;4.30;99.90;;;;;;2024361;29;20269;-81
2023/12/12 04:41:30;;;;;;;4.60;2.67;;;4.40;99.90;;;;;;2026194;29;20272;-80
2023/12/12 04:42:30;;;;;;;4.67;2.17;;;4.40;99.90;;;;;;2022026;29;20341;-81
2023/12/12 04:43:32;;;;;;;5.60;2.50;;;4.40;99.90;;;;;;2021529;29;20229;-79
2023/12/12 04:44:33;;;;;;;7.00;2.50;;;4.40;99.90;;;;;;2031667;28;20249;-80
2023/12/12 04:45:34;;;;;;;5.70;2.80;;;4.30;99.90;;;;;;2035795;29;20256;-82
2023/12/12 04:46:34;;;;;;;7.37;3.23;;;4.40;99.90;;;;;;2033174;29;20311;-81
2023/12/12 04:47:35;;;;;;;4.57;2.30;;;4.40;99.90;;;;;;2032015;29;20229;-82
2023/12/12 04:48:36;;;;;;;4.30;2.17;;;4.30;99.90;;;;;;2034568;28;20228;-80
2023/12/12 04:49:36;;;;;;;4.17;2.43;;;4.30;99.90;;;;;;2032175;29;20237;-80
2023/12/12 04:50:37;;;;;;;4.23;2.27;;;4.30;99.90;;;;;;2024924;28;20229;-83
2023/12/12 04:51:38;;;;;;;5.40;2.83;;;4.30;99.90;;;;;;2024714;28;20240;-83
2023/12/12 04:52:39;;;;;;;7.27;3.33;;;4.30;99.90;;;;;;2032196;29;20244;-82
2023/12/12 04:53:39;;;;;;;5.70;2.60;;;4.30;99.90;;;;;;2024118;29;20312;-81
2023/12/12 04:54:40;;;;;;;7.37;3.60;;;4.30;99.90;;;;;;2035646;28;20681;-81
2023/12/12 04:55:41;;;;;;;8.70;3.27;;;4.30;99.90;;;;;;2030918;28;20264;-81
2023/12/12 04:56:41;;;;;;;7.20;3.80;;;4.30;99.90;;;;;;2024349;28;20237;-81
2023/12/12 04:57:43;;;;;;;6.10;4.13;;;4.40;99.90;;;;;;2023990;29;20801;-81
2023/12/12 04:58:43;;;;;;;12.73;7.22;;;4.30;99.90;;;;;;2023225;28;20229;-82
2023/12/12 04:59:45;;;;;;;28.10;18.23;;;4.30;99.90;;;;;;2031371;29;20663;-82
2023/12/12 05:00:45;;;;;;;21.73;11.60;;;4.30;99.90;;;;;;2023258;28;20304;-82
2023/12/12 05:01:46;;;;;;;14.83;9.97;;;4.20;99.90;;;;;;2016237;28;20229;-82
2023/12/12 05:02:47;;;;;;;14.33;9.47;;;4.20;99.90;;;;;;2020785;28;20236;-81
2023/12/12 05:03:48;;;;;;;14.95;6.93;;;4.20;99.90;;;;;;2030714;28;20241;-81
2023/12/12 05:04:48;;;;;;;11.97;7.87;;;4.20;99.90;;;;;;2039085;29;20240;-82
2023/12/12 05:05:49;;;;;;;8.90;5.80;;;4.20;99.90;;;;;;2043259;29;20225;-81
2023/12/12 05:06:50;;;;;;;15.40;7.47;;;4.10;99.90;;;;;;2031371;29;20249;-82
2023/12/12 05:07:51;;;;;;;13.30;7.20;;;4.20;99.90;;;;;;2023089;28;20232;-81
2023/12/12 05:08:51;;;;;;;12.40;6.50;;;4.20;99.90;;;;;;2020298;28;20226;-82
2023/12/12 05:09:52;;;;;;;13.20;6.13;;;4.20;99.90;;;;;;2019279;28;20233;-82
2023/12/12 05:10:53;;;;;;;7.83;4.03;;;4.20;99.90;;;;;;2015405;29;20232;-82
2023/12/12 05:11:53;;;;;;;5.67;2.90;;;4.30;99.90;;;;;;2023120;28;20233;-81
2023/12/12 05:12:54;;;;;;;6.13;3.10;;;4.20;99.90;;;;;;2014586;29;20821;-81
2023/12/12 05:13:56;;;;;;;8.90;2.97;;;4.30;99.90;;;;;;2014710;29;20285;-81
2023/12/12 05:14:57;;;;;;;5.53;2.70;;;4.10;99.90;;;;;;2023443;29;20251;-82
2023/12/12 05:15:57;;;;;;;5.50;3.37;;;4.20;99.90;;;;;;2030746;29;20243;-81
2023/12/12 05:16:58;;;;;;;9.60;4.00;;;4.20;99.90;;;;;;2034339;29;20267;-81
2023/12/12 05:17:59;;;;;;;7.67;3.90;;;4.10;99.90;;;;;;2026675;28;20221;-81
2023/12/12 05:18:59;;;;;;;5.70;2.93;;;4.10;99.90;;;;;;2027156;28;20232;-81
2023/12/12 05:20:00;;;;;;;2.97;1.70;;;4.10;99.90;;;;;;2028812;29;20224;-82
2023/12/12 05:21:01;;;;;;;5.97;2.27;;;4.10;99.90;;;;;;2037386;29;20212;-80